Time;durP1;ratioP1;P1;durP2;ratioP2;P2;SDS_P1;SDS_P2;PMS_P1;PMS_P2;Temp;Humidity;BMP_temperature;BMP_pressure;BME280_temperature;BME280_humidity;BME280_pressure;Samples;Min_cycle;Max_cycle;Signal;HPM_P1;HPM_P2
2023/03/01 00:00:40;;;;;;;13.18;5.40;;;;;;;;;;5026612;28;20087;-49
2023/03/01 00:03:05;;;;;;;13.15;5.85;;;;;;;;;;5023924;28;20029;-46
2023/03/01 00:05:31;;;;;;;13.45;5.50;;;;;;;;;;5017898;28;20479;-46
2023/03/01 00:07:57;;;;;;;12.10;5.57;;;;;;;;;;5026100;28;20080;-47
2023/03/01 00:10:22;;;;;;;14.32;5.78;;;;;;;;;;5027184;28;20033;-51
2023/03/01 00:12:48;;;;;;;14.90;5.60;;;;;;;;;;5023087;28;20038;-50
2023/03/01 00:15:13;;;;;;;13.60;5.68;;;;;;;;;;5025731;28;20456;-50
2023/03/01 00:17:38;;;;;;;12.65;5.47;;;;;;;;;;5026040;28;20065;-50
2023/03/01 00:20:09;;;;;;;12.90;5.68;;;;;;;;;;5036609;28;20112;-50
2023/03/01 00:22:34;;;;;;;11.45;5.28;;;;;;;;;;5064541;28;20025;-50
2023/03/01 00:25:00;;;;;;;12.20;5.78;;;;;;;;;;5045597;28;20055;-49
2023/03/01 00:27:25;;;;;;;13.32;5.45;;;;;;;;;;5029136;28;20040;-48
2023/03/01 00:29:52;;;;;;;11.90;5.65;;;;;;;;;;5026640;28;20541;-50
2023/03/01 00:32:17;;;;;;;14.75;6.32;;;;;;;;;;5022135;28;20427;-51
2023/03/01 00:34:42;;;;;;;13.77;5.25;;;;;;;;;;5024081;28;20029;-49
2023/03/01 00:37:07;;;;;;;11.68;5.32;;;;;;;;;;5027320;28;20027;-49
2023/03/01 00:39:33;;;;;;;10.85;5.78;;;;;;;;;;5027518;28;20037;-49
2023/03/01 00:41:58;;;;;;;18.42;6.97;;;;;;;;;;5027533;28;20033;-51
2023/03/01 00:44:24;;;;;;;12.23;6.22;;;;;;;;;;5030095;28;20037;-49
2023/03/01 00:46:49;;;;;;;9.65;5.15;;;;;;;;;;5030313;28;20037;-49
2023/03/01 00:49:14;;;;;;;12.98;5.50;;;;;;;;;;5028259;28;20137;-50
2023/03/01 00:51:41;;;;;;;14.25;6.60;;;;;;;;;;5039915;28;20037;-49
2023/03/01 00:54:08;;;;;;;12.35;5.95;;;;;;;;;;5047855;28;20395;-46
2023/03/01 00:56:34;;;;;;;15.70;6.00;;;;;;;;;;5050019;28;20041;-48
2023/03/01 00:58:59;;;;;;;11.77;5.45;;;;;;;;;;5037090;28;20025;-50
2023/03/01 01:01:31;;;;;;;11.80;5.55;;;;;;;;;;5028184;28;20053;-47
2023/03/01 01:04:03;;;;;;;10.32;5.78;;;;;;;;;;5030442;28;20591;-50
2023/03/01 01:06:31;;;;;;;20.40;6.65;;;;;;;;;;5029275;28;20057;-50
2023/03/01 01:08:57;;;;;;;18.38;5.40;;;;;;;;;;5040989;28;20045;-49
2023/03/01 01:11:25;;;;;;;12.60;5.50;;;;;;;;;;5048369;28;20055;-50
2023/03/01 01:13:51;;;;;;;11.82;5.07;;;;;;;;;;5049591;28;20040;-49
2023/03/01 01:16:18;;;;;;;14.73;5.68;;;;;;;;;;5049691;28;20032;-50
2023/03/01 01:18:44;;;;;;;13.13;5.25;;;;;;;;;;5049132;28;20131;-50
2023/03/01 01:21:13;;;;;;;13.30;5.20;;;;;;;;;;5043381;28;20155;-47
2023/03/01 01:23:40;;;;;;;14.43;4.70;;;;;;;;;;5049129;28;20127;-50
2023/03/01 01:26:08;;;;;;;10.43;5.05;;;;;;;;;;5049077;28;20110;-47
2023/03/01 01:28:34;;;;;;;11.05;5.22;;;;;;;;;;5049279;28;20028;-49
2023/03/01 01:30:59;;;;;;;9.93;5.20;;;;;;;;;;5050001;28;20086;-49
2023/03/01 01:33:25;;;;;;;9.68;4.88;;;;;;;;;;5048203;28;20037;-48
2023/03/01 01:35:50;;;;;;;10.60;4.53;;;;;;;;;;5048723;28;20036;-49
2023/03/01 01:38:15;;;;;;;9.80;5.00;;;;;;;;;;5049455;28;20119;-50
2023/03/01 01:40:45;;;;;;;10.60;5.28;;;;;;;;;;5048193;28;20033;-50
2023/03/01 01:43:22;;;;;;;14.48;5.75;;;;;;;;;;5049242;28;20116;-48
2023/03/01 01:45:48;;;;;;;10.90;5.30;;;;;;;;;;5047854;28;20099;-50
2023/03/01 01:48:18;;;;;;;11.95;5.18;;;;;;;;;;5045075;28;20029;-48
2023/03/01 01:50:44;;;;;;;13.25;4.55;;;;;;;;;;5044593;28;20029;-47
2023/03/01 01:53:14;;;;;;;9.60;4.75;;;;;;;;;;5048530;28;20029;-47
2023/03/01 01:55:45;;;;;;;13.75;6.07;;;;;;;;;;5048467;28;20103;-48
2023/03/01 01:58:13;;;;;;;9.90;4.57;;;;;;;;;;5048479;28;20024;-50
2023/03/01 02:00:39;;;;;;;11.13;5.07;;;;;;;;;;5048713;28;20113;-50
2023/03/01 02:03:09;;;;;;;12.75;4.88;;;;;;;;;;5046923;28;20120;-47
2023/03/01 02:05:43;;;;;;;11.55;4.93;;;;;;;;;;5048465;28;20086;-49
2023/03/01 02:08:09;;;;;;;;;;;;;;;;;;5048128;28;20033;-46
2023/03/01 02:10:35;;;;;;;12.23;5.10;;;;;;;;;;5047983;28;19913;-50
2023/03/01 02:13:02;;;;;;;10.07;4.95;;;;;;;;;;5048074;28;20449;-47
2023/03/01 02:15:32;;;;;;;10.32;5.07;;;;;;;;;;5048394;28;20045;-49
2023/03/01 02:17:57;;;;;;;9.45;5.10;;;;;;;;;;5047985;28;20072;-47
2023/03/01 02:20:46;;;;;;;9.13;4.80;;;;;;;;;;5048216;28;20095;-50
2023/03/01 02:23:12;;;;;;;16.85;6.20;;;;;;;;;;5046621;28;20025;-49
2023/03/01 02:25:46;;;;;;;9.38;4.75;;;;;;;;;;5048393;28;20036;-49
2023/03/01 02:28:15;;;;;;;12.85;5.03;;;;;;;;;;5048129;28;20037;-50
2023/03/01 02:33:33;;;;;;;9.98;4.43;;;;;;;;;;5047335;28;20620;-49
2023/03/01 02:36:20;;;;;;;9.98;5.50;;;;;;;;;;5047650;28;20044;-50
2023/03/01 02:38:47;;;;;;;8.80;5.65;;;;;;;;;;5046453;28;20041;-50
2023/03/01 02:41:16;;;;;;;11.80;5.07;;;;;;;;;;5047287;28;20107;-47
2023/03/01 02:43:41;;;;;;;12.07;5.72;;;;;;;;;;5047690;28;20020;-50
2023/03/01 02:46:24;;;;;;;10.38;4.85;;;;;;;;;;5047769;28;20028;-50
2023/03/01 02:48:55;;;;;;;11.98;5.22;;;;;;;;;;5047374;28;20056;-49
2023/03/01 02:51:26;;;;;;;10.70;5.00;;;;;;;;;;5044773;28;20041;-48
2023/03/01 02:54:26;;;;;;;11.68;4.55;;;;;;;;;;5045893;28;20044;-50
2023/03/01 02:56:51;;;;;;;11.75;5.55;;;;;;;;;;5047108;28;20106;-50
2023/03/01 02:59:20;;;;;;;13.75;6.40;;;;;;;;;;5042156;28;20824;-52
2023/03/01 03:01:46;;;;;;;9.43;4.55;;;;;;;;;;5045623;28;20072;-51
2023/03/01 03:04:16;;;;;;;13.05;5.28;;;;;;;;;;5047391;28;20074;-50
2023/03/01 03:06:43;;;;;;;12.40;4.63;;;;;;;;;;5047280;28;20550;-48
2023/03/01 03:09:08;;;;;;;10.40;5.30;;;;;;;;;;5047045;28;20040;-51
2023/03/01 03:11:33;;;;;;;10.45;5.18;;;;;;;;;;5045401;28;20029;-50
2023/03/01 03:13:59;;;;;;;13.18;5.22;;;;;;;;;;5046901;28;20033;-48
2023/03/01 03:16:24;;;;;;;9.70;4.35;;;;;;;;;;5047514;28;20060;-50
2023/03/01 03:18:50;;;;;;;16.40;5.53;;;;;;;;;;5046313;28;20051;-51
2023/03/01 03:21:16;;;;;;;11.15;5.55;;;;;;;;;;5041464;28;20037;-50
2023/03/01 03:23:41;;;;;;;11.50;5.03;;;;;;;;;;5046971;28;20043;-49
2023/03/01 03:26:07;;;;;;;12.15;5.10;;;;;;;;;;5046096;28;20135;-52
2023/03/01 03:28:34;;;;;;;9.45;4.80;;;;;;;;;;5042780;28;20029;-50
2023/03/01 03:31:03;;;;;;;12.55;4.97;;;;;;;;;;5046628;28;20490;-52
2023/03/01 03:33:29;;;;;;;9.55;5.03;;;;;;;;;;5044289;28;20041;-47
2023/03/01 03:35:55;;;;;;;11.85;5.18;;;;;;;;;;5045275;28;20504;-50
2023/03/01 03:38:21;;;;;;;10.43;5.32;;;;;;;;;;5055687;28;20052;-48
2023/03/01 03:41:02;;;;;;;11.48;5.05;;;;;;;;;;5066421;28;20086;-48
2023/03/01 03:43:28;;;;;;;12.50;4.63;;;;;;;;;;5051191;28;20025;-50
2023/03/01 03:45:53;;;;;;;7.47;4.38;;;;;;;;;;5046029;28;20071;-52
2023/03/01 03:48:19;;;;;;;12.40;4.82;;;;;;;;;;5046321;28;20063;-49
2023/03/01 03:50:53;;;;;;;10.85;4.57;;;;;;;;;;5045306;28;20592;-49
2023/03/01 03:53:20;;;;;;;11.07;5.53;;;;;;;;;;5043339;28;20037;-51
2023/03/01 03:55:48;;;;;;;17.63;6.25;;;;;;;;;;5046034;28;20486;-48
2023/03/01 03:58:15;;;;;;;10.32;4.90;;;;;;;;;;5047648;28;20066;-50
2023/03/01 04:00:42;;;;;;;10.35;4.70;;;;;;;;;;5045573;28;20064;-50
2023/03/01 04:03:09;;;;;;;14.98;5.35;;;;;;;;;;5046515;28;20044;-52
2023/03/01 04:05:36;;;;;;;10.23;4.75;;;;;;;;;;5046278;28;20067;-51
2023/03/01 04:08:02;;;;;;;11.15;4.93;;;;;;;;;;5045719;28;20029;-49
2023/03/01 04:10:29;;;;;;;11.82;5.65;;;;;;;;;;5046986;28;20021;-51
2023/03/01 04:12:57;;;;;;;14.52;5.97;;;;;;;;;;5046277;28;20030;-49
2023/03/01 04:15:25;;;;;;;14.70;6.10;;;;;;;;;;5019620;28;20769;-51
2023/03/01 04:17:52;;;;;;;12.23;4.88;;;;;;;;;;5025651;28;20025;-50
2023/03/01 04:20:26;;;;;;;9.20;4.80;;;;;;;;;;5025273;28;20034;-50
2023/03/01 04:22:57;;;;;;;14.05;6.15;;;;;;;;;;5026127;28;20026;-51
2023/03/01 04:25:23;;;;;;;13.75;6.35;;;;;;;;;;5025980;28;20434;-50
2023/03/01 04:27:48;;;;;;;14.82;5.43;;;;;;;;;;5025515;28;20042;-49
2023/03/01 04:30:14;;;;;;;14.27;7.28;;;;;;;;;;5026361;28;20038;-52
2023/03/01 04:32:39;;;;;;;19.23;6.65;;;;;;;;;;5024804;28;20064;-51
2023/03/01 04:35:05;;;;;;;16.38;6.05;;;;;;;;;;5026034;28;20029;-51
2023/03/01 04:37:30;;;;;;;11.02;5.47;;;;;;;;;;5026347;28;20164;-50
2023/03/01 04:39:55;;;;;;;14.60;5.00;;;;;;;;;;5026859;28;20051;-50
2023/03/01 04:42:21;;;;;;;9.30;4.57;;;;;;;;;;5025933;28;20467;-51
2023/03/01 04:44:46;;;;;;;12.90;5.65;;;;;;;;;;5026256;28;20080;-50
2023/03/01 04:47:12;;;;;;;16.90;6.72;;;;;;;;;;5026067;28;20531;-51
2023/03/01 04:49:37;;;;;;;16.15;4.72;;;;;;;;;;5024624;28;20714;-48
2023/03/01 04:52:03;;;;;;;10.23;5.40;;;;;;;;;;5025950;28;20040;-51
2023/03/01 04:54:32;;;;;;;13.35;6.10;;;;;;;;;;5025664;28;20176;-49
2023/03/01 04:56:58;;;;;;;14.23;6.28;;;;;;;;;;5026261;28;20041;-48
2023/03/01 04:59:23;;;;;;;15.38;6.07;;;;;;;;;;5024578;28;20029;-51
2023/03/01 05:01:50;;;;;;;13.57;5.25;;;;;;;;;;5026034;28;20036;-51
2023/03/01 05:04:15;;;;;;;15.65;7.00;;;;;;;;;;5026353;28;20029;-50
2023/03/01 05:06:40;;;;;;;16.20;6.57;;;;;;;;;;5020892;28;20040;-48
2023/03/01 05:09:06;;;;;;;13.98;6.65;;;;;;;;;;5023175;28;20045;-49
2023/03/01 05:11:35;;;;;;;15.07;5.78;;;;;;;;;;5026091;28;20032;-50
2023/03/01 05:14:02;;;;;;;15.80;7.60;;;;;;;;;;5024006;28;20542;-50
2023/03/01 05:16:27;;;;;;;15.60;6.65;;;;;;;;;;5020429;28;20021;-49
2023/03/01 05:18:52;;;;;;;12.20;5.00;;;;;;;;;;5009873;28;20027;-49
2023/03/01 05:21:17;;;;;;;9.38;5.72;;;;;;;;;;5025162;28;20040;-51
2023/03/01 05:23:44;;;;;;;11.30;5.88;;;;;;;;;;5024545;28;20454;-50
2023/03/01 05:26:09;;;;;;;17.77;7.32;;;;;;;;;;5025955;28;20040;-49
2023/03/01 05:28:35;;;;;;;13.32;6.00;;;;;;;;;;5029041;28;20025;-48
2023/03/01 05:31:01;;;;;;;14.70;6.20;;;;;;;;;;5028335;28;20025;-51
2023/03/01 05:33:27;;;;;;;17.45;6.18;;;;;;;;;;5027447;28;20029;-51
2023/03/01 05:35:53;;;;;;;20.58;7.47;;;;;;;;;;5028861;28;20029;-49
2023/03/01 05:38:19;;;;;;;22.00;7.68;;;;;;;;;;5028820;28;20801;-48
2023/03/01 05:40:46;;;;;;;15.65;7.70;;;;;;;;;;5028805;28;20026;-49
2023/03/01 05:43:13;;;;;;;14.77;7.13;;;;;;;;;;5029085;28;20014;-51
2023/03/01 05:45:40;;;;;;;18.10;7.75;;;;;;;;;;5029080;28;20649;-49
2023/03/01 05:48:07;;;;;;;14.18;6.32;;;;;;;;;;5027642;28;20065;-48
2023/03/01 05:50:39;;;;;;;20.90;7.57;;;;;;;;;;5028058;28;20239;-47
2023/03/01 05:53:11;;;;;;;17.55;7.93;;;;;;;;;;5028991;28;20030;-50
2023/03/01 05:55:37;;;;;;;15.93;8.05;;;;;;;;;;5028770;28;20056;-49
2023/03/01 05:58:06;;;;;;;11.45;5.82;;;;;;;;;;5025185;28;20384;-52
2023/03/01 06:00:32;;;;;;;14.85;6.93;;;;;;;;;;5027842;28;20471;-48
2023/03/01 06:02:59;;;;;;;15.93;6.10;;;;;;;;;;5028549;28;20428;-50
2023/03/01 06:05:25;;;;;;;18.80;7.95;;;;;;;;;;5028303;28;20124;-47
2023/03/01 06:07:51;;;;;;;13.75;5.85;;;;;;;;;;5026750;28;20029;-50
2023/03/01 06:10:17;;;;;;;12.70;5.35;;;;;;;;;;5028672;28;20427;-49
2023/03/01 06:12:43;;;;;;;12.75;5.57;;;;;;;;;;5028228;28;20088;-50
2023/03/01 06:15:11;;;;;;;19.90;6.55;;;;;;;;;;5028015;28;20033;-52
2023/03/01 06:17:38;;;;;;;16.95;5.75;;;;;;;;;;5027379;28;20030;-50
2023/03/01 06:20:16;;;;;;;12.45;5.78;;;;;;;;;;5028772;28;20531;-51
2023/03/01 06:22:43;;;;;;;14.10;5.90;;;;;;;;;;5025220;28;20101;-52
2023/03/01 06:25:09;;;;;;;14.30;5.25;;;;;;;;;;5027223;28;20031;-50
2023/03/01 06:27:35;;;;;;;13.52;5.63;;;;;;;;;;5026400;28;20037;-50
2023/03/01 06:30:00;;;;;;;9.40;4.95;;;;;;;;;;5027966;28;20037;-51
2023/03/01 06:32:25;;;;;;;11.35;5.95;;;;;;;;;;5027842;28;20030;-51
2023/03/01 06:34:51;;;;;;;11.23;5.25;;;;;;;;;;5028049;28;20079;-48
2023/03/01 06:37:16;;;;;;;12.63;5.13;;;;;;;;;;5024471;28;20013;-50
2023/03/01 06:39:41;;;;;;;16.92;5.13;;;;;;;;;;5011127;28;20585;-48
2023/03/01 06:42:08;;;;;;;12.60;6.07;;;;;;;;;;5023816;28;20116;-48
2023/03/01 06:44:33;;;;;;;11.70;5.65;;;;;;;;;;5022636;28;20030;-51
2023/03/01 06:46:59;;;;;;;12.85;5.95;;;;;;;;;;5031106;28;20047;-51
2023/03/01 06:49:24;;;;;;;9.32;5.32;;;;;;;;;;5047190;28;20469;-51
2023/03/01 06:51:49;;;;;;;11.77;5.40;;;;;;;;;;5023734;28;20384;-50
2023/03/01 06:54:15;;;;;;;18.48;7.07;;;;;;;;;;5021464;28;20152;-48
2023/03/01 06:56:40;;;;;;;15.20;6.65;;;;;;;;;;5007180;28;20029;-51
2023/03/01 06:59:05;;;;;;;14.90;6.70;;;;;;;;;;5012829;28;20057;-49
2023/03/01 07:01:31;;;;;;;17.27;7.15;;;;;;;;;;5018848;28;20104;-48
2023/03/01 07:03:57;;;;;;;17.48;8.35;;;;;;;;;;5015389;28;20037;-50
2023/03/01 07:06:23;;;;;;;12.57;6.60;;;;;;;;;;5010459;28;20042;-49
2023/03/01 07:08:48;;;;;;;19.40;7.38;;;;;;;;;;5009286;28;20052;-48
2023/03/01 07:14:36;;;;;;;23.42;8.85;;;;;;;;;;4965088;28;20053;-48
2023/03/01 07:17:01;;;;;;;20.58;8.20;;;;;;;;;;4983676;23;20046;-48
2023/03/01 07:19:26;;;;;;;21.95;9.10;;;;;;;;;;4977352;28;20038;-51
2023/03/01 07:21:52;;;;;;;22.25;8.65;;;;;;;;;;4978120;28;20010;-47
2023/03/01 07:24:17;;;;;;;15.93;8.00;;;;;;;;;;4993007;28;20042;-51
2023/03/01 07:26:42;;;;;;;12.52;6.82;;;;;;;;;;5005415;28;20566;-47
2023/03/01 07:29:09;;;;;;;29.50;12.23;;;;;;;;;;5007141;28;20572;-49
2023/03/01 07:31:35;;;;;;;33.42;14.52;;;;;;;;;;5005896;28;20038;-48
2023/03/01 07:34:00;;;;;;;20.33;9.98;;;;;;;;;;5007162;28;20048;-47
2023/03/01 07:36:26;;;;;;;17.92;9.27;;;;;;;;;;5006554;28;20124;-46
2023/03/01 07:38:52;;;;;;;14.77;8.40;;;;;;;;;;5007242;28;20030;-48
2023/03/01 07:41:17;;;;;;;31.75;9.40;;;;;;;;;;5005894;28;20030;-50
2023/03/01 07:43:43;;;;;;;17.17;8.75;;;;;;;;;;5006661;28;20407;-46
2023/03/01 07:46:08;;;;;;;16.10;7.03;;;;;;;;;;5005400;28;20048;-48
2023/03/01 07:48:33;;;;;;;19.33;7.65;;;;;;;;;;5005190;28;20297;-47
2023/03/01 07:51:00;;;;;;;14.63;5.75;;;;;;;;;;5005760;28;20088;-48
2023/03/01 07:53:26;;;;;;;12.93;6.35;;;;;;;;;;5015229;28;20044;-48
2023/03/01 07:56:21;;;;;;;18.13;10.02;;;;;;;;;;4994510;28;20042;-49
2023/03/01 07:58:47;;;;;;;17.83;7.30;;;;;;;;;;5006328;28;20042;-51
2023/03/01 08:01:15;;;;;;;23.02;10.35;;;;;;;;;;5005408;28;20025;-49
2023/03/01 08:03:42;;;;;;;16.35;9.38;;;;;;;;;;4994164;28;20041;-47
2023/03/01 08:06:09;;;;;;;12.48;6.63;;;;;;;;;;5002344;28;20049;-47
2023/03/01 08:08:35;;;;;;;17.83;7.72;;;;;;;;;;5024564;28;20061;-47
2023/03/01 08:11:03;;;;;;;11.75;5.65;;;;;;;;;;5026220;28;20095;-48
2023/03/01 08:13:29;;;;;;;15.23;8.43;;;;;;;;;;5026381;28;20030;-46
2023/03/01 08:16:00;;;;;;;14.68;7.07;;;;;;;;;;5016584;28;20462;-47
2023/03/01 08:18:25;;;;;;;16.10;7.38;;;;;;;;;;5024771;28;20427;-49
2023/03/01 08:20:50;;;;;;;18.40;8.55;;;;;;;;;;5045513;28;20033;-48
2023/03/01 08:23:16;;;;;;;14.10;7.13;;;;;;;;;;5030413;28;20107;-48
2023/03/01 08:25:41;;;;;;;17.85;8.38;;;;;;;;;;5023060;28;20436;-50
2023/03/01 08:28:06;;;;;;;17.20;7.55;;;;;;;;;;5033822;28;20024;-47
2023/03/01 08:30:32;;;;;;;16.92;8.40;;;;;;;;;;5025029;28;20064;-51
2023/03/01 08:32:57;;;;;;;23.67;9.38;;;;;;;;;;5025019;28;20052;-48
2023/03/01 08:35:23;;;;;;;29.77;12.52;;;;;;;;;;5024114;28;20519;-50
2023/03/01 08:37:48;;;;;;;23.13;10.88;;;;;;;;;;5025209;28;20029;-48
2023/03/01 08:40:13;;;;;;;18.80;7.95;;;;;;;;;;5025827;28;20026;-49
2023/03/01 08:42:40;;;;;;;21.83;10.38;;;;;;;;;;5025419;28;20029;-48
2023/03/01 08:45:07;;;;;;;15.75;7.40;;;;;;;;;;5027279;28;20037;-47
2023/03/01 08:47:33;;;;;;;19.58;7.35;;;;;;;;;;5024702;28;20415;-48
2023/03/01 08:49:59;;;;;;;20.23;9.88;;;;;;;;;;5019848;28;20120;-51
2023/03/01 08:52:24;;;;;;;16.08;7.13;;;;;;;;;;5006412;28;20117;-48
2023/03/01 08:54:50;;;;;;;16.15;7.85;;;;;;;;;;5003813;28;20545;-50
2023/03/01 08:57:15;;;;;;;18.92;8.80;;;;;;;;;;5005534;28;20030;-51
2023/03/01 08:59:41;;;;;;;20.70;9.13;;;;;;;;;;5003816;28;20508;-46
2023/03/01 09:02:12;;;;;;;17.45;7.45;;;;;;;;;;4996801;28;20042;-47
2023/03/01 09:04:38;;;;;;;17.67;8.45;;;;;;;;;;5002932;28;20072;-46
2023/03/01 09:07:03;;;;;;;24.20;9.18;;;;;;;;;;5003988;28;20412;-46
2023/03/01 09:09:29;;;;;;;19.27;9.07;;;;;;;;;;4998876;28;20192;-49
2023/03/01 09:11:54;;;;;;;13.52;7.07;;;;;;;;;;5002130;28;20183;-46
2023/03/01 09:14:19;;;;;;;18.27;6.40;;;;;;;;;;5004795;28;20026;-48
2023/03/01 09:16:45;;;;;;;18.75;8.85;;;;;;;;;;5000546;28;20056;-47
2023/03/01 09:19:11;;;;;;;14.23;6.13;;;;;;;;;;5001440;28;20392;-49
2023/03/01 09:21:37;;;;;;;13.93;6.57;;;;;;;;;;5006331;28;20034;-46
2023/03/01 09:24:03;;;;;;;19.67;8.85;;;;;;;;;;4995328;28;20053;-49
2023/03/01 09:26:28;;;;;;;11.93;4.40;;;;;;;;;;5008286;28;20038;-49
2023/03/01 09:28:55;;;;;;;18.23;7.32;;;;;;;;;;5005892;28;20036;-47
2023/03/01 09:31:23;;;;;;;18.08;7.60;;;;;;;;;;5008914;28;20101;-49
2023/03/01 09:33:50;;;;;;;16.90;7.20;;;;;;;;;;5005574;28;20030;-50
2023/03/01 09:36:18;;;;;;;19.23;6.97;;;;;;;;;;5002265;28;20073;-47
2023/03/01 09:38:45;;;;;;;16.52;7.35;;;;;;;;;;5009533;28;20071;-49
2023/03/01 09:41:36;;;;;;;13.25;6.43;;;;;;;;;;5009096;28;20025;-47
2023/03/01 09:44:25;;;;;;;15.05;7.10;;;;;;;;;;5003251;28;20107;-47
2023/03/01 09:46:51;;;;;;;11.23;5.93;;;;;;;;;;4987643;28;20103;-50
2023/03/01 09:49:20;;;;;;;18.15;8.93;;;;;;;;;;4988820;28;20079;-50
2023/03/01 09:51:57;;;;;;;14.63;6.40;;;;;;;;;;5009169;28;20548;-47
2023/03/01 09:54:22;;;;;;;16.20;6.95;;;;;;;;;;5028421;28;20037;-46
2023/03/01 09:56:50;;;;;;;10.90;5.30;;;;;;;;;;5028389;28;20533;-50
2023/03/01 09:59:22;;;;;;;19.83;8.23;;;;;;;;;;5027603;28;20034;-50
2023/03/01 10:02:01;;;;;;;14.23;7.80;;;;;;;;;;5028578;28;20091;-46
2023/03/01 10:04:40;;;;;;;18.70;7.35;;;;;;;;;;5027583;28;20430;-46
2023/03/01 10:07:23;;;;;;;16.92;7.70;;;;;;;;;;5028418;28;20037;-46
2023/03/01 10:09:49;;;;;;;16.23;6.93;;;;;;;;;;5006667;28;20625;-46
2023/03/01 10:12:23;;;;;;;21.52;8.40;;;;;;;;;;5006166;28;20498;-49
2023/03/01 10:14:59;;;;;;;17.52;7.90;;;;;;;;;;5007277;28;20450;-47
2023/03/01 10:17:33;;;;;;;16.10;7.38;;;;;;;;;;5017419;28;20431;-47
2023/03/01 10:20:24;;;;;;;20.85;7.68;;;;;;;;;;5021744;28;20121;-49
2023/03/01 10:22:52;;;;;;;14.15;6.93;;;;;;;;;;5008053;28;20034;-46
2023/03/01 10:25:59;;;;;;;13.98;6.35;;;;;;;;;;4989898;28;20034;-50
2023/03/01 10:28:51;;;;;;;22.40;8.88;;;;;;;;;;4987417;28;20034;-49
2023/03/01 10:31:28;;;;;;;17.08;8.20;;;;;;;;;;5002376;28;20045;-46
2023/03/01 10:33:56;;;;;;;26.20;10.77;;;;;;;;;;5007843;28;20052;-46
2023/03/01 10:36:22;;;;;;;15.65;6.65;;;;;;;;;;5007968;28;20581;-48
2023/03/01 10:38:53;;;;;;;20.23;8.68;;;;;;;;;;5002295;28;20539;-49
2023/03/01 10:41:20;;;;;;;22.50;8.93;;;;;;;;;;5013358;28;20678;-47
2023/03/01 10:43:46;;;;;;;17.25;6.60;;;;;;;;;;5027585;28;20037;-50
2023/03/01 10:46:32;;;;;;;19.55;7.70;;;;;;;;;;5027485;28;20033;-47
2023/03/01 10:49:18;;;;;;;19.50;7.07;;;;;;;;;;5025590;28;20408;-48
2023/03/01 10:51:47;;;;;;;18.08;8.00;;;;;;;;;;5026971;28;20044;-48
2023/03/01 10:54:29;;;;;;;19.08;7.75;;;;;;;;;;5026474;28;20658;-48
2023/03/01 10:57:01;;;;;;;19.73;8.45;;;;;;;;;;5025881;28;20060;-50
2023/03/01 10:59:33;;;;;;;18.02;8.38;;;;;;;;;;5024334;28;20049;-52
2023/03/01 11:02:25;;;;;;;21.13;9.40;;;;;;;;;;5027075;28;20608;-47
2023/03/01 11:05:19;;;;;;;16.00;7.20;;;;;;;;;;5026739;28;20715;-47
2023/03/01 11:07:53;;;;;;;26.00;10.65;;;;;;;;;;5027135;28;20052;-49
2023/03/01 11:10:31;;;;;;;17.23;7.40;;;;;;;;;;5022647;28;20539;-49
2023/03/01 11:13:07;;;;;;;20.75;9.45;;;;;;;;;;5021033;28;20056;-51
2023/03/01 11:15:32;;;;;;;17.38;7.38;;;;;;;;;;5025570;28;20128;-48
2023/03/01 11:17:57;;;;;;;21.58;9.75;;;;;;;;;;5025944;28;20120;-48
2023/03/01 11:20:34;;;;;;;18.33;8.10;;;;;;;;;;5042028;28;20430;-48
2023/03/01 11:23:06;;;;;;;18.10;7.55;;;;;;;;;;5030530;28;20048;-47
2023/03/01 11:25:37;;;;;;;18.38;7.25;;;;;;;;;;5026145;28;20045;-50
2023/03/01 11:28:04;;;;;;;11.75;5.45;;;;;;;;;;5026567;28;20491;-49
2023/03/01 11:30:32;;;;;;;18.95;7.53;;;;;;;;;;5026513;28;20517;-47
2023/03/01 11:33:13;;;;;;;14.77;6.93;;;;;;;;;;5026069;28;20041;-47
2023/03/01 11:35:44;;;;;;;18.25;8.20;;;;;;;;;;5025446;28;20073;-49
2023/03/01 11:38:19;;;;;;;15.38;5.32;;;;;;;;;;5024774;28;20041;-47
2023/03/01 11:41:07;;;;;;;15.63;6.47;;;;;;;;;;5025557;28;20045;-47
2023/03/01 11:43:49;;;;;;;13.30;6.22;;;;;;;;;;5029050;28;20040;-50
2023/03/01 11:46:14;;;;;;;14.55;7.15;;;;;;;;;;5046152;28;20100;-49
2023/03/01 11:48:52;;;;;;;15.68;7.00;;;;;;;;;;5045861;28;20124;-48
2023/03/01 11:51:38;;;;;;;13.18;6.22;;;;;;;;;;5046013;28;20033;-50
2023/03/01 11:54:13;;;;;;;16.00;8.25;;;;;;;;;;5045605;28;20064;-48
2023/03/01 11:56:50;;;;;;;14.10;6.30;;;;;;;;;;5045411;28;20503;-47
2023/03/01 11:59:48;;;;;;;13.77;6.20;;;;;;;;;;5045461;28;20570;-49
2023/03/01 12:02:37;;;;;;;19.63;8.50;;;;;;;;;;5025868;28;20277;-49
2023/03/01 12:05:40;;;;;;;17.48;7.93;;;;;;;;;;5020769;28;20107;-48
2023/03/01 12:08:31;;;;;;;17.40;7.22;;;;;;;;;;5025781;28;20029;-48
2023/03/01 12:11:11;;;;;;;19.27;8.35;;;;;;;;;;5012398;28;20060;-47
2023/03/01 12:14:02;;;;;;;12.90;6.25;;;;;;;;;;5020284;28;20084;-47
2023/03/01 12:16:58;;;;;;;18.67;8.48;;;;;;;;;;5024925;28;20072;-50
2023/03/01 12:19:31;;;;;;;23.55;9.25;;;;;;;;;;5033582;28;20071;-48
2023/03/01 12:22:04;;;;;;;16.43;7.47;;;;;;;;;;5046261;28;20095;-50
2023/03/01 12:25:00;;;;;;;19.63;8.35;;;;;;;;;;5014550;28;20316;-49
2023/03/01 12:27:40;;;;;;;20.30;7.82;;;;;;;;;;5004744;28;20598;-49
2023/03/01 12:30:20;;;;;;;19.42;8.32;;;;;;;;;;5006014;28;20042;-48
2023/03/01 12:32:57;;;;;;;22.33;8.70;;;;;;;;;;5020446;28;20121;-47
2023/03/01 12:35:41;;;;;;;18.88;8.13;;;;;;;;;;5005507;28;20140;-46
2023/03/01 12:38:13;;;;;;;21.45;7.95;;;;;;;;;;5009303;28;20046;-46
2023/03/01 12:41:06;;;;;;;16.95;8.75;;;;;;;;;;5021204;28;20063;-46
2023/03/01 12:44:06;;;;;;;18.25;8.55;;;;;;;;;;5029596;28;20039;-46
2023/03/01 12:46:56;;;;;;;20.13;7.95;;;;;;;;;;5029258;28;20037;-47
2023/03/01 12:49:28;;;;;;;19.65;8.48;;;;;;;;;;5029186;28;20057;-48
2023/03/01 12:52:03;;;;;;;14.52;6.93;;;;;;;;;;5026635;28;20502;-48
2023/03/01 12:54:35;;;;;;;17.90;8.38;;;;;;;;;;5026565;28;20062;-49
2023/03/01 12:57:12;;;;;;;14.10;5.00;;;;;;;;;;5027819;28;20123;-49
2023/03/01 13:00:07;;;;;;;19.33;8.15;;;;;;;;;;5025332;28;20632;-49
2023/03/01 13:02:52;;;;;;;17.75;7.30;;;;;;;;;;5046721;28;20034;-47
2023/03/01 13:05:31;;;;;;;17.35;8.27;;;;;;;;;;5047262;28;20723;-47
2023/03/01 13:08:41;;;;;;;15.45;6.70;;;;;;;;;;5047774;28;20155;-50
2023/03/01 13:11:17;;;;;;;19.02;7.68;;;;;;;;;;5001245;28;20119;-50
2023/03/01 13:13:43;;;;;;;15.65;6.90;;;;;;;;;;5047241;28;20094;-49
2023/03/01 13:16:48;;;;;;;16.10;6.68;;;;;;;;;;5019987;28;20045;-48
2023/03/01 13:19:32;;;;;;;17.92;8.07;;;;;;;;;;4991980;28;20066;-46
2023/03/01 13:21:58;;;;;;;14.13;5.93;;;;;;;;;;5006867;28;20721;-47
2023/03/01 13:24:37;;;;;;;13.95;6.45;;;;;;;;;;5006682;28;20415;-48
2023/03/01 13:27:08;;;;;;;16.88;7.57;;;;;;;;;;5007234;28;20037;-47
2023/03/01 13:29:55;;;;;;;15.02;6.88;;;;;;;;;;5007330;28;20041;-48
2023/03/01 13:32:28;;;;;;;14.98;6.97;;;;;;;;;;4997209;28;20046;-49
2023/03/01 13:35:25;;;;;;;19.33;7.83;;;;;;;;;;5003237;28;20100;-50
2023/03/01 13:37:50;;;;;;;11.85;6.10;;;;;;;;;;5000369;28;20773;-48
2023/03/01 13:40:18;;;;;;;13.63;6.15;;;;;;;;;;5006732;28;20025;-48
2023/03/01 13:42:54;;;;;;;17.55;7.25;;;;;;;;;;5008522;28;20479;-51
2023/03/01 13:45:42;;;;;;;14.07;6.07;;;;;;;;;;4987057;28;20050;-47
2023/03/01 13:48:16;;;;;;;15.23;7.18;;;;;;;;;;4985830;28;20058;-48
2023/03/01 13:50:52;;;;;;;18.10;7.22;;;;;;;;;;4987147;28;20053;-50
2023/03/01 13:53:21;;;;;;;16.83;7.35;;;;;;;;;;4987285;28;20088;-50
2023/03/01 13:56:00;;;;;;;16.23;8.15;;;;;;;;;;4986957;28;20461;-48
2023/03/01 13:58:27;;;;;;;12.63;5.50;;;;;;;;;;4987629;28;20042;-50
2023/03/01 14:01:00;;;;;;;15.32;6.53;;;;;;;;;;4988488;28;20030;-47
2023/03/01 14:03:26;;;;;;;15.55;6.72;;;;;;;;;;5000491;28;20834;-48
2023/03/01 14:06:07;;;;;;;7.82;4.35;;;;;;;;;;4986597;28;20070;-50
2023/03/01 14:08:36;;;;;;;12.73;5.47;;;;;;;;;;4987474;28;20080;-50
2023/03/01 14:11:05;;;;;;;15.07;8.25;;;;;;;;;;4987603;28;20508;-46
2023/03/01 14:13:42;;;;;;;13.75;6.53;;;;;;;;;;4986635;28;20671;-47
2023/03/01 14:16:32;;;;;;;19.65;7.65;;;;;;;;;;5002679;28;20546;-51
2023/03/01 14:19:28;;;;;;;15.90;7.93;;;;;;;;;;5002838;28;20038;-49
2023/03/01 14:22:28;;;;;;;14.90;7.28;;;;;;;;;;5025072;28;20069;-48
2023/03/01 14:25:16;;;;;;;13.52;7.15;;;;;;;;;;5013262;28;20104;-47
2023/03/01 14:27:43;;;;;;;15.88;7.65;;;;;;;;;;5006111;28;20045;-51
2023/03/01 14:30:12;;;;;;;18.27;6.47;;;;;;;;;;5007086;28;20044;-47
2023/03/01 14:32:37;;;;;;;12.13;5.68;;;;;;;;;;5007445;28;20073;-48
2023/03/01 14:35:03;;;;;;;16.27;6.32;;;;;;;;;;5042267;28;20431;-47
2023/03/01 14:37:29;;;;;;;12.02;5.57;;;;;;;;;;5046263;28;20078;-49
2023/03/01 14:39:55;;;;;;;15.10;7.30;;;;;;;;;;5046139;28;20020;-46
2023/03/01 14:42:23;;;;;;;17.10;7.22;;;;;;;;;;5045212;28;20190;-47
2023/03/01 14:44:51;;;;;;;28.63;11.40;;;;;;;;;;5046312;28;20055;-51
2023/03/01 14:47:25;;;;;;;17.25;7.22;;;;;;;;;;5020175;28;20095;-47
2023/03/01 14:49:56;;;;;;;15.90;8.07;;;;;;;;;;5005576;28;20088;-47
2023/03/01 14:52:28;;;;;;;12.68;7.35;;;;;;;;;;5005638;28;20064;-50
2023/03/01 14:54:54;;;;;;;14.10;5.88;;;;;;;;;;5006603;28;20024;-48
2023/03/01 14:57:22;;;;;;;12.05;6.35;;;;;;;;;;5006035;28;20041;-47